Hakuryoumaru No.15 — JD2439 — position and weather

sailwx.info

Track history (hours):
 
Tides and Currents Weather Stations Pressure Air Temp Water Temp Dewpoint Dewpoint Depression Visibility Wind Speed Wind Dir Waves Ship Positions

Hakuryoumaru No.15

Last reported at 2016-Sep-29 21:30 UTC. Time now 2016-Sep-30 01:31 UTC.
Position N 34°12' E 135°09'.

Length 80 m; draft 5.4 m.

Type: Tanker. MMSI: 431000243.

Date/timePositionNaut miles runAvg speedWind from/ knotsBaromVisibWave heightAir tempDewpointWater temp
2016-Sep-29 21:30N 34°12' E 135°09'0 0.0
2016-Sep-29 20:30N 34°12' E 135°09'0 0.0
2016-Sep-29 19:30N 34°12' E 135°09'0 0.0
2016-Sep-29 16:30N 34°12' E 135°09'0 0.0
2016-Sep-29 15:29N 34°12' E 135°09'0 0.0
2016-Sep-29 14:29N 34°12' E 135°09'0 0.0
2016-Sep-29 13:12N 34°12' E 135°09'0 0.0
2016-Sep-29 08:32N 34°12' E 135°09'0 0.0
2016-Sep-29 07:05N 34°12' E 135°09'0 0.0
2016-Sep-29 00:33N 34°13' E 135°08'3 0.8
2016-Sep-28 21:31N 34°10' E 135°09'0 0.0
2016-Sep-28 19:16N 34°10' E 135°09'0 0.0
2016-Sep-28 16:25N 34°10' E 135°09'3 0.4
2016-Sep-28 08:33N 34°09' E 135°05'257 8.0
2016-Sep-27 00:33N 35°31' E 140°03'3 0.7
2016-Sep-26 20:33N 35°31' E 139°59'0 0.0
2016-Sep-26 19:24N 35°31' E 139°59'0 0.0
2016-Sep-26 15:27N 35°31' E 139°59'10 4.4
2016-Sep-26 13:07N 35°31' E 139°46'3 0.3
2016-Sep-26 02:31N 35°31' E 139°50'0 0.0
2016-Sep-26 01:31N 35°31' E 139°50'0 0.0
2016-Sep-26 00:31N 35°31' E 139°50'4 0.6
2016-Sep-25 17:22N 35°30' E 139°45'0 0.0
2016-Sep-25 16:31N 35°30' E 139°45'0 0.0
2016-Sep-25 14:25N 35°30' E 139°45'0 0.0
2016-Sep-25 10:19N 35°30' E 139°45'0 0.0
2016-Sep-25 09:25N 35°30' E 139°45'0 0.0
2016-Sep-25 07:19N 35°30' E 139°45'0 0.0
2016-Sep-25 04:25N 35°30' E 139°45'2 0.4
2016-Sep-24 22:31N 35°29' E 139°48'0 0.0
2016-Sep-24 21:31N 35°29' E 139°48'0 0.0
2016-Sep-24 19:31N 35°29' E 139°48'0 0.0
2016-Sep-24 18:31N 35°29' E 139°48'0 0.0
2016-Sep-24 17:31N 35°29' E 139°48'0 0.0
2016-Sep-24 16:31N 35°29' E 139°48'0 0.0
2016-Sep-24 14:31N 35°29' E 139°48'0 0.0
2016-Sep-24 12:31N 35°29' E 139°48'0 0.0
2016-Sep-24 10:31N 35°29' E 139°48'1111.5
2016-Sep-24 09:33N 35°18' E 139°45'  
Track history (hours):
 
Tides and Currents Weather Stations Pressure Air Temp Water Temp Dewpoint Dewpoint Depression Visibility Wind Speed Wind Dir Waves Ship Positions

Hakuryoumaru No.15

Last reported at 2016-Sep-29 21:30 UTC. Time now 2016-Sep-30 01:31 UTC.
Position N 34°12' E 135°09'.

Length 80 m; draft 5.4 m.

Type: Tanker. MMSI: 431000243.

Date/timePositionNaut miles runAvg speedWind from/ knotsBaromVisibWave heightAir tempDewpointWater temp
2016-Sep-29 21:30N 34°12' E 135°09'0 0.0
2016-Sep-29 20:30N 34°12' E 135°09'0 0.0
2016-Sep-29 19:30N 34°12' E 135°09'0 0.0
2016-Sep-29 16:30N 34°12' E 135°09'0 0.0
2016-Sep-29 15:29N 34°12' E 135°09'0 0.0
2016-Sep-29 14:29N 34°12' E 135°09'0 0.0
2016-Sep-29 13:12N 34°12' E 135°09'0 0.0
2016-Sep-29 08:32N 34°12' E 135°09'0 0.0
2016-Sep-29 07:05N 34°12' E 135°09'0 0.0
2016-Sep-29 00:33N 34°13' E 135°08'3 0.8
2016-Sep-28 21:31N 34°10' E 135°09'0 0.0
2016-Sep-28 19:16N 34°10' E 135°09'0 0.0
2016-Sep-28 16:25N 34°10' E 135°09'3 0.4
2016-Sep-28 08:33N 34°09' E 135°05'257 8.0
2016-Sep-27 00:33N 35°31' E 140°03'3 0.7
2016-Sep-26 20:33N 35°31' E 139°59'0 0.0
2016-Sep-26 19:24N 35°31' E 139°59'0 0.0
2016-Sep-26 15:27N 35°31' E 139°59'10 4.4
2016-Sep-26 13:07N 35°31' E 139°46'3 0.3
2016-Sep-26 02:31N 35°31' E 139°50'0 0.0
2016-Sep-26 01:31N 35°31' E 139°50'0 0.0
2016-Sep-26 00:31N 35°31' E 139°50'4 0.6
2016-Sep-25 17:22N 35°30' E 139°45'0 0.0
2016-Sep-25 16:31N 35°30' E 139°45'0 0.0
2016-Sep-25 14:25N 35°30' E 139°45'0 0.0
2016-Sep-25 10:19N 35°30' E 139°45'0 0.0
2016-Sep-25 09:25N 35°30' E 139°45'0 0.0
2016-Sep-25 07:19N 35°30' E 139°45'0 0.0
2016-Sep-25 04:25N 35°30' E 139°45'2 0.4
2016-Sep-24 22:31N 35°29' E 139°48'0 0.0
2016-Sep-24 21:31N 35°29' E 139°48'0 0.0
2016-Sep-24 19:31N 35°29' E 139°48'0 0.0
2016-Sep-24 18:31N 35°29' E 139°48'0 0.0
2016-Sep-24 17:31N 35°29' E 139°48'0 0.0
2016-Sep-24 16:31N 35°29' E 139°48'0 0.0
2016-Sep-24 14:31N 35°29' E 139°48'0 0.0
2016-Sep-24 12:31N 35°29' E 139°48'0 0.0
2016-Sep-24 10:31N 35°29' E 139°48'1111.5
2016-Sep-24 09:33N 35°18' E 139°45'  

Dump ship's entire track history